MV Alemania — V2OG7 — position and weather

sailwx.info

Track history (hours):
 
Tides and Currents Weather Stations Pressure Air Temp Water Temp Dewpoint Dewpoint Depression Visibility Wind Speed Wind Dir Waves Ship Positions

MV Alemania

Last reported at 2015-May-05 17:31 UTC. Time now 2015-May-05 18:18 UTC.
Position N 37°57' E 023°36'.

Length 133 m; draft 7.6 m.

Type: Ship (hazmat cat A). MMSI: 304010613.

Date/timePositionNaut miles runAvg speedWind from/ knotsBaromVisibWave heightAir tempDewpointWater temp
2015-May-05 17:31N 37°57' E 023°36'0 0.3
2015-May-05 16:34N 37°57' E 023°36'3 2.6
2015-May-05 15:33N 37°55' E 023°35'5 4.7
2015-May-05 14:33N 37°51' E 023°39'1110.7
2015-May-05 13:33N 37°41' E 023°45'1110.8
2015-May-05 12:33N 37°31' E 023°49'1110.8
2015-May-05 11:29N 37°20' E 023°52'1310.6
2015-May-05 10:15N 37°07' E 023°55'810.6
2015-May-05 09:32N 36°60' E 023°57'1010.5
2015-May-05 08:33N 36°49' E 023°59'2410.5
2015-May-05 06:15N 36°33' E 023°37'40311.5
2015-May-03 19:19N 36°19' E 015°17'911.4
2015-May-03 18:33N 36°20' E 015°06'1111.3
2015-May-03 17:33N 36°20' E 014°52'1111.0
2015-May-03 16:33N 36°20' E 014°39'1110.9
2015-May-03 15:33N 36°20' E 014°25'1111.1
2015-May-03 14:33N 36°20' E 014°11'1111.5
2015-May-03 13:34N 36°21' E 013°57'1211.5
2015-May-03 12:33N 36°25' E 013°44'1212.0
2015-May-03 11:33N 36°30' E 013°30'1211.7
2015-May-03 10:33N 36°35' E 013°17'1111.4
2015-May-03 09:33N 36°39' E 013°03'1211.7
2015-May-03 08:33N 36°43' E 012°50'1111.2
2015-May-03 07:33N 36°47' E 012°37'6 6.1
2015-May-03 06:33N 36°50' E 012°30'1313.0
2015-May-03 05:33N 36°55' E 012°15'1413.5
2015-May-03 04:32N 37°00' E 011°59'2713.1
2015-May-03 02:26N 37°14' E 011°29'1213.1
2015-May-03 01:33N 37°20' E 011°16'67 7.3
2015-May-02 16:24N 37°16' E 009°52'1 0.0
2015-May-01 04:26N 37°16' E 009°53'  
2015-Apr-26 17:15N 36°48' E 010°16'0 0.0
2015-Apr-26 16:27N 36°48' E 010°16'2 0.2
2015-Apr-26 06:11N 36°48' E 010°18'  
Track history (hours):
 
Tides and Currents Weather Stations Pressure Air Temp Water Temp Dewpoint Dewpoint Depression Visibility Wind Speed Wind Dir Waves Ship Positions

MV Alemania

Last reported at 2015-May-05 17:31 UTC. Time now 2015-May-05 18:18 UTC.
Position N 37°57' E 023°36'.

Length 133 m; draft 7.6 m.

Type: Ship (hazmat cat A). MMSI: 304010613.

Date/timePositionNaut miles runAvg speedWind from/ knotsBaromVisibWave heightAir tempDewpointWater temp
2015-May-05 17:31N 37°57' E 023°36'0 0.3
2015-May-05 16:34N 37°57' E 023°36'3 2.6
2015-May-05 15:33N 37°55' E 023°35'5 4.7
2015-May-05 14:33N 37°51' E 023°39'1110.7
2015-May-05 13:33N 37°41' E 023°45'1110.8
2015-May-05 12:33N 37°31' E 023°49'1110.8
2015-May-05 11:29N 37°20' E 023°52'1310.6
2015-May-05 10:15N 37°07' E 023°55'810.6
2015-May-05 09:32N 36°60' E 023°57'1010.5
2015-May-05 08:33N 36°49' E 023°59'2410.5
2015-May-05 06:15N 36°33' E 023°37'40311.5
2015-May-03 19:19N 36°19' E 015°17'911.4
2015-May-03 18:33N 36°20' E 015°06'1111.3
2015-May-03 17:33N 36°20' E 014°52'1111.0
2015-May-03 16:33N 36°20' E 014°39'1110.9
2015-May-03 15:33N 36°20' E 014°25'1111.1
2015-May-03 14:33N 36°20' E 014°11'1111.5
2015-May-03 13:34N 36°21' E 013°57'1211.5
2015-May-03 12:33N 36°25' E 013°44'1212.0
2015-May-03 11:33N 36°30' E 013°30'1211.7
2015-May-03 10:33N 36°35' E 013°17'1111.4
2015-May-03 09:33N 36°39' E 013°03'1211.7
2015-May-03 08:33N 36°43' E 012°50'1111.2
2015-May-03 07:33N 36°47' E 012°37'6 6.1
2015-May-03 06:33N 36°50' E 012°30'1313.0
2015-May-03 05:33N 36°55' E 012°15'1413.5
2015-May-03 04:32N 37°00' E 011°59'2713.1
2015-May-03 02:26N 37°14' E 011°29'1213.1
2015-May-03 01:33N 37°20' E 011°16'67 7.3
2015-May-02 16:24N 37°16' E 009°52'1 0.0
2015-May-01 04:26N 37°16' E 009°53'  
2015-Apr-26 17:15N 36°48' E 010°16'0 0.0
2015-Apr-26 16:27N 36°48' E 010°16'2 0.2
2015-Apr-26 06:11N 36°48' E 010°18'  

Dump ship's entire track history